sensor_id;sensor_type;location;lat;lon;timestamp;P1;durP1;ratioP1;P2;durP2;ratioP2
30068;SDS011;16894;49.456;10.644;2022-09-09T00:04:00;33.35;;;30.77;;
30068;SDS011;16894;49.456;10.644;2022-09-09T00:09:22;34.53;;;32.35;;
30068;SDS011;16894;49.456;10.644;2022-09-09T00:14:47;41.70;;;38.95;;
30068;SDS011;16894;49.456;10.644;2022-09-09T00:17:56;42.03;;;38.47;;
30068;SDS011;16894;49.456;10.644;2022-09-09T00:20:28;30.33;;;28.33;;
30068;SDS011;16894;49.456;10.644;2022-09-09T00:28:09;28.27;;;25.95;;
30068;SDS011;16894;49.456;10.644;2022-09-09T00:30:43;29.52;;;27.50;;
30068;SDS011;16894;49.456;10.644;2022-09-09T00:33:12;30.08;;;28.02;;
30068;SDS011;16894;49.456;10.644;2022-09-09T00:35:56;27.00;;;24.90;;
30068;SDS011;16894;49.456;10.644;2022-09-09T00:38:42;34.75;;;32.28;;
30068;SDS011;16894;49.456;10.644;2022-09-09T00:43:47;40.25;;;37.42;;
30068;SDS011;16894;49.456;10.644;2022-09-09T00:46:46;39.33;;;36.55;;
30068;SDS011;16894;49.456;10.644;2022-09-09T00:49:39;42.35;;;38.95;;
30068;SDS011;16894;49.456;10.644;2022-09-09T00:55:03;41.58;;;38.40;;
30068;SDS011;16894;49.456;10.644;2022-09-09T00:57:30;42.92;;;39.88;;
30068;SDS011;16894;49.456;10.644;2022-09-09T01:00:15;42.53;;;39.72;;
30068;SDS011;16894;49.456;10.644;2022-09-09T01:02:48;44.25;;;40.83;;
30068;SDS011;16894;49.456;10.644;2022-09-09T01:08:00;42.70;;;39.75;;
30068;SDS011;16894;49.456;10.644;2022-09-09T01:10:47;38.67;;;35.97;;
30068;SDS011;16894;49.456;10.644;2022-09-09T01:13:26;35.65;;;33.05;;
30068;SDS011;16894;49.456;10.644;2022-09-09T01:16:02;32.40;;;30.00;;
30068;SDS011;16894;49.456;10.644;2022-09-09T01:18:34;32.78;;;30.67;;
30068;SDS011;16894;49.456;10.644;2022-09-09T01:24:17;35.70;;;33.50;;
30068;SDS011;16894;49.456;10.644;2022-09-09T01:27:04;36.00;;;33.53;;
30068;SDS011;16894;49.456;10.644;2022-09-09T01:29:31;39.30;;;36.75;;
30068;SDS011;16894;49.456;10.644;2022-09-09T01:31:58;37.75;;;34.97;;
30068;SDS011;16894;49.456;10.644;2022-09-09T01:34:33;35.80;;;33.45;;
30068;SDS011;16894;49.456;10.644;2022-09-09T01:37:04;33.22;;;30.45;;
30068;SDS011;16894;49.456;10.644;2022-09-09T01:39:33;28.90;;;27.17;;
30068;SDS011;16894;49.456;10.644;2022-09-09T01:42:01;27.58;;;25.48;;
30068;SDS011;16894;49.456;10.644;2022-09-09T01:44:27;36.33;;;34.03;;
30068;SDS011;16894;49.456;10.644;2022-09-09T01:46:54;37.67;;;35.00;;
30068;SDS011;16894;49.456;10.644;2022-09-09T01:49:20;36.87;;;34.47;;
30068;SDS011;16894;49.456;10.644;2022-09-09T01:51:47;33.70;;;31.23;;
30068;SDS011;16894;49.456;10.644;2022-09-09T01:54:16;35.53;;;32.85;;
30068;SDS011;16894;49.456;10.644;2022-09-09T02:02:30;30.10;;;27.90;;
30068;SDS011;16894;49.456;10.644;2022-09-09T02:07:56;35.08;;;32.83;;
30068;SDS011;16894;49.456;10.644;2022-09-09T02:10:42;32.25;;;29.95;;
30068;SDS011;16894;49.456;10.644;2022-09-09T02:13:13;30.80;;;28.50;;
30068;SDS011;16894;49.456;10.644;2022-09-09T02:15:50;32.30;;;30.23;;
30068;SDS011;16894;49.456;10.644;2022-09-09T02:18:23;38.50;;;35.70;;
30068;SDS011;16894;49.456;10.644;2022-09-09T02:20:57;36.45;;;33.25;;
30068;SDS011;16894;49.456;10.644;2022-09-09T02:23:24;37.50;;;34.88;;
30068;SDS011;16894;49.456;10.644;2022-09-09T02:28:18;47.27;;;43.23;;
30068;SDS011;16894;49.456;10.644;2022-09-09T02:30:46;46.03;;;42.58;;
30068;SDS011;16894;49.456;10.644;2022-09-09T02:33:19;43.30;;;40.05;;
30068;SDS011;16894;49.456;10.644;2022-09-09T02:35:58;39.80;;;36.60;;
30068;SDS011;16894;49.456;10.644;2022-09-09T02:38:28;41.42;;;38.67;;
30068;SDS011;16894;49.456;10.644;2022-09-09T02:41:00;32.13;;;29.55;;
30068;SDS011;16894;49.456;10.644;2022-09-09T02:43:31;33.50;;;31.15;;
30068;SDS011;16894;49.456;10.644;2022-09-09T02:46:01;30.95;;;28.55;;
30068;SDS011;16894;49.456;10.644;2022-09-09T02:51:24;38.70;;;35.97;;
30068;SDS011;16894;49.456;10.644;2022-09-09T02:56:40;35.10;;;32.88;;
30068;SDS011;16894;49.456;10.644;2022-09-09T02:59:08;40.38;;;37.85;;
30068;SDS011;16894;49.456;10.644;2022-09-09T03:01:34;39.47;;;36.40;;
30068;SDS011;16894;49.456;10.644;2022-09-09T03:04:01;35.20;;;32.37;;
30068;SDS011;16894;49.456;10.644;2022-09-09T03:06:46;36.33;;;33.65;;
30068;SDS011;16894;49.456;10.644;2022-09-09T03:09:12;39.37;;;36.83;;
30068;SDS011;16894;49.456;10.644;2022-09-09T03:11:38;36.67;;;34.23;;
30068;SDS011;16894;49.456;10.644;2022-09-09T03:14:04;30.60;;;27.73;;
30068;SDS011;16894;49.456;10.644;2022-09-09T03:16:30;33.40;;;31.13;;
30068;SDS011;16894;49.456;10.644;2022-09-09T03:18:58;28.42;;;26.35;;
30068;SDS011;16894;49.456;10.644;2022-09-09T03:21:24;26.63;;;24.73;;
30068;SDS011;16894;49.456;10.644;2022-09-09T03:23:49;30.10;;;27.73;;
30068;SDS011;16894;49.456;10.644;2022-09-09T03:26:15;33.23;;;30.80;;
30068;SDS011;16894;49.456;10.644;2022-09-09T03:28:42;30.27;;;27.92;;
30068;SDS011;16894;49.456;10.644;2022-09-09T03:31:08;26.60;;;24.48;;
30068;SDS011;16894;49.456;10.644;2022-09-09T03:33:37;28.95;;;27.02;;
30068;SDS011;16894;49.456;10.644;2022-09-09T03:36:03;27.52;;;25.50;;
30068;SDS011;16894;49.456;10.644;2022-09-09T03:38:29;24.88;;;23.02;;
30068;SDS011;16894;49.456;10.644;2022-09-09T03:43:26;33.15;;;30.98;;
30068;SDS011;16894;49.456;10.644;2022-09-09T03:45:53;38.58;;;35.47;;
30068;SDS011;16894;49.456;10.644;2022-09-09T03:48:23;32.05;;;29.73;;
30068;SDS011;16894;49.456;10.644;2022-09-09T03:50:51;30.85;;;28.45;;
30068;SDS011;16894;49.456;10.644;2022-09-09T03:53:18;31.27;;;28.55;;
30068;SDS011;16894;49.456;10.644;2022-09-09T03:55:51;31.52;;;29.25;;
30068;SDS011;16894;49.456;10.644;2022-09-09T03:58:20;31.20;;;28.35;;
30068;SDS011;16894;49.456;10.644;2022-09-09T04:00:57;34.40;;;31.95;;
30068;SDS011;16894;49.456;10.644;2022-09-09T04:03:39;37.33;;;34.75;;
30068;SDS011;16894;49.456;10.644;2022-09-09T04:08:32;44.38;;;41.35;;
30068;SDS011;16894;49.456;10.644;2022-09-09T04:10:59;44.42;;;41.30;;
30068;SDS011;16894;49.456;10.644;2022-09-09T04:13:26;38.28;;;35.58;;
30068;SDS011;16894;49.456;10.644;2022-09-09T04:15:52;39.27;;;35.63;;
30068;SDS011;16894;49.456;10.644;2022-09-09T04:18:20;34.45;;;32.13;;
30068;SDS011;16894;49.456;10.644;2022-09-09T04:20:50;36.08;;;32.70;;
30068;SDS011;16894;49.456;10.644;2022-09-09T04:23:17;30.38;;;27.77;;
30068;SDS011;16894;49.456;10.644;2022-09-09T04:25:46;27.85;;;25.80;;
30068;SDS011;16894;49.456;10.644;2022-09-09T04:28:17;32.33;;;30.00;;
30068;SDS011;16894;49.456;10.644;2022-09-09T04:30:44;35.60;;;32.65;;
30068;SDS011;16894;49.456;10.644;2022-09-09T04:33:11;31.75;;;29.58;;
30068;SDS011;16894;49.456;10.644;2022-09-09T04:35:37;39.72;;;36.58;;
30068;SDS011;16894;49.456;10.644;2022-09-09T04:38:04;40.15;;;37.00;;
30068;SDS011;16894;49.456;10.644;2022-09-09T04:40:32;41.67;;;38.80;;
30068;SDS011;16894;49.456;10.644;2022-09-09T04:42:58;43.87;;;40.93;;
30068;SDS011;16894;49.456;10.644;2022-09-09T04:45:24;38.35;;;35.13;;
30068;SDS011;16894;49.456;10.644;2022-09-09T04:50:17;46.22;;;42.65;;
30068;SDS011;16894;49.456;10.644;2022-09-09T04:52:43;42.53;;;38.85;;
30068;SDS011;16894;49.456;10.644;2022-09-09T04:55:09;42.10;;;39.13;;
30068;SDS011;16894;49.456;10.644;2022-09-09T04:57:35;44.35;;;40.55;;
30068;SDS011;16894;49.456;10.644;2022-09-09T05:00:01;39.47;;;36.60;;
30068;SDS011;16894;49.456;10.644;2022-09-09T05:02:28;43.80;;;40.13;;
30068;SDS011;16894;49.456;10.644;2022-09-09T05:04:55;44.17;;;39.97;;
30068;SDS011;16894;49.456;10.644;2022-09-09T05:07:21;45.15;;;41.80;;
30068;SDS011;16894;49.456;10.644;2022-09-09T05:09:47;45.92;;;42.85;;
30068;SDS011;16894;49.456;10.644;2022-09-09T05:12:14;48.03;;;44.70;;
30068;SDS011;16894;49.456;10.644;2022-09-09T05:14:41;43.67;;;39.88;;
30068;SDS011;16894;49.456;10.644;2022-09-09T05:17:08;49.67;;;46.35;;
30068;SDS011;16894;49.456;10.644;2022-09-09T05:19:33;44.97;;;41.90;;
30068;SDS011;16894;49.456;10.644;2022-09-09T05:21:59;47.63;;;43.70;;
30068;SDS011;16894;49.456;10.644;2022-09-09T05:24:26;49.38;;;45.80;;
30068;SDS011;16894;49.456;10.644;2022-09-09T05:26:51;39.65;;;36.67;;
30068;SDS011;16894;49.456;10.644;2022-09-09T05:29:17;39.63;;;36.33;;
30068;SDS011;16894;49.456;10.644;2022-09-09T05:31:44;38.95;;;35.03;;
30068;SDS011;16894;49.456;10.644;2022-09-09T05:34:12;34.85;;;31.52;;
30068;SDS011;16894;49.456;10.644;2022-09-09T05:36:38;26.00;;;23.57;;
30068;SDS011;16894;49.456;10.644;2022-09-09T05:39:04;29.10;;;27.10;;
30068;SDS011;16894;49.456;10.644;2022-09-09T05:41:30;28.90;;;27.00;;
30068;SDS011;16894;49.456;10.644;2022-09-09T05:46:24;39.83;;;36.65;;
30068;SDS011;16894;49.456;10.644;2022-09-09T05:48:50;31.85;;;29.27;;
30068;SDS011;16894;49.456;10.644;2022-09-09T05:51:17;33.10;;;30.77;;
30068;SDS011;16894;49.456;10.644;2022-09-09T05:53:46;32.20;;;29.95;;
30068;SDS011;16894;49.456;10.644;2022-09-09T05:58:40;30.58;;;28.55;;
30068;SDS011;16894;49.456;10.644;2022-09-09T06:01:12;28.77;;;26.58;;
30068;SDS011;16894;49.456;10.644;2022-09-09T06:03:40;22.58;;;20.23;;
30068;SDS011;16894;49.456;10.644;2022-09-09T06:06:07;19.02;;;17.60;;
30068;SDS011;16894;49.456;10.644;2022-09-09T06:08:35;19.17;;;17.45;;
30068;SDS011;16894;49.456;10.644;2022-09-09T06:11:13;17.95;;;15.90;;
30068;SDS011;16894;49.456;10.644;2022-09-09T06:16:10;26.80;;;24.85;;
30068;SDS011;16894;49.456;10.644;2022-09-09T06:18:40;22.30;;;20.08;;
30068;SDS011;16894;49.456;10.644;2022-09-09T06:21:08;21.25;;;19.58;;
30068;SDS011;16894;49.456;10.644;2022-09-09T06:23:39;20.23;;;18.80;;
30068;SDS011;16894;49.456;10.644;2022-09-09T06:26:06;20.73;;;15.82;;
30068;SDS011;16894;49.456;10.644;2022-09-09T06:28:34;18.20;;;16.90;;
30068;SDS011;16894;49.456;10.644;2022-09-09T06:31:02;14.80;;;13.57;;
30068;SDS011;16894;49.456;10.644;2022-09-09T06:33:33;13.85;;;12.60;;
30068;SDS011;16894;49.456;10.644;2022-09-09T06:36:01;12.43;;;9.43;;
30068;SDS011;16894;49.456;10.644;2022-09-09T06:38:31;8.70;;;7.88;;
30068;SDS011;16894;49.456;10.644;2022-09-09T06:40:58;6.88;;;6.28;;
30068;SDS011;16894;49.456;10.644;2022-09-09T06:43:24;4.75;;;3.97;;
30068;SDS011;16894;49.456;10.644;2022-09-09T06:48:19;8.10;;;4.65;;
30068;SDS011;16894;49.456;10.644;2022-09-09T06:50:46;4.68;;;3.35;;
30068;SDS011;16894;49.456;10.644;2022-09-09T06:53:12;5.32;;;3.17;;
30068;SDS011;16894;49.456;10.644;2022-09-09T06:55:37;8.33;;;2.70;;
30068;SDS011;16894;49.456;10.644;2022-09-09T06:58:08;8.13;;;2.00;;
30068;SDS011;16894;49.456;10.644;2022-09-09T07:00:34;6.45;;;2.70;;
30068;SDS011;16894;49.456;10.644;2022-09-09T07:03:02;6.00;;;2.95;;
30068;SDS011;16894;49.456;10.644;2022-09-09T07:05:28;6.80;;;4.05;;
30068;SDS011;16894;49.456;10.644;2022-09-09T07:07:54;6.80;;;6.07;;
30068;SDS011;16894;49.456;10.644;2022-09-09T07:10:19;9.30;;;6.83;;
30068;SDS011;16894;49.456;10.644;2022-09-09T07:12:45;8.87;;;7.73;;
30068;SDS011;16894;49.456;10.644;2022-09-09T07:15:17;14.23;;;12.20;;
30068;SDS011;16894;49.456;10.644;2022-09-09T07:20:09;26.17;;;24.25;;
30068;SDS011;16894;49.456;10.644;2022-09-09T07:22:35;37.22;;;34.58;;
30068;SDS011;16894;49.456;10.644;2022-09-09T07:25:01;34.22;;;31.88;;
30068;SDS011;16894;49.456;10.644;2022-09-09T07:27:27;29.98;;;27.63;;
30068;SDS011;16894;49.456;10.644;2022-09-09T07:29:53;28.25;;;26.35;;
30068;SDS011;16894;49.456;10.644;2022-09-09T07:32:19;21.33;;;19.92;;
30068;SDS011;16894;49.456;10.644;2022-09-09T07:34:45;13.63;;;12.57;;
30068;SDS011;16894;49.456;10.644;2022-09-09T07:39:38;7.15;;;6.60;;
30068;SDS011;16894;49.456;10.644;2022-09-09T07:42:04;7.43;;;6.28;;
30068;SDS011;16894;49.456;10.644;2022-09-09T07:44:30;7.35;;;6.70;;
30068;SDS011;16894;49.456;10.644;2022-09-09T07:47:00;7.70;;;5.57;;
30068;SDS011;16894;49.456;10.644;2022-09-09T07:49:26;6.85;;;6.25;;
30068;SDS011;16894;49.456;10.644;2022-09-09T07:51:52;6.90;;;5.87;;
30068;SDS011;16894;49.456;10.644;2022-09-09T07:54:18;8.85;;;5.47;;
30068;SDS011;16894;49.456;10.644;2022-09-09T07:56:48;6.47;;;5.45;;
30068;SDS011;16894;49.456;10.644;2022-09-09T07:59:15;8.43;;;5.75;;
30068;SDS011;16894;49.456;10.644;2022-09-09T08:01:50;8.25;;;5.95;;
30068;SDS011;16894;49.456;10.644;2022-09-09T08:04:19;7.63;;;5.03;;
30068;SDS011;16894;49.456;10.644;2022-09-09T08:06:51;6.03;;;5.07;;
30068;SDS011;16894;49.456;10.644;2022-09-09T08:09:18;9.73;;;4.68;;
30068;SDS011;16894;49.456;10.644;2022-09-09T08:11:44;5.90;;;4.82;;
30068;SDS011;16894;49.456;10.644;2022-09-09T08:14:10;6.10;;;4.63;;
30068;SDS011;16894;49.456;10.644;2022-09-09T08:19:03;5.00;;;4.50;;
30068;SDS011;16894;49.456;10.644;2022-09-09T08:21:31;9.80;;;3.85;;
30068;SDS011;16894;49.456;10.644;2022-09-09T08:24:00;13.82;;;5.15;;
30068;SDS011;16894;49.456;10.644;2022-09-09T08:26:29;4.40;;;2.95;;
30068;SDS011;16894;49.456;10.644;2022-09-09T08:28:57;11.73;;;3.05;;
30068;SDS011;16894;49.456;10.644;2022-09-09T08:31:27;7.10;;;3.83;;
30068;SDS011;16894;49.456;10.644;2022-09-09T08:33:55;7.03;;;6.30;;
30068;SDS011;16894;49.456;10.644;2022-09-09T08:36:25;11.10;;;10.13;;
30068;SDS011;16894;49.456;10.644;2022-09-09T08:38:54;17.95;;;16.85;;
30068;SDS011;16894;49.456;10.644;2022-09-09T08:52:16;4.80;;;2.55;;
30068;SDS011;16894;49.456;10.644;2022-09-09T08:57:51;5.05;;;3.20;;
30068;SDS011;16894;49.456;10.644;2022-09-09T09:00:19;8.07;;;2.95;;
30068;SDS011;16894;49.456;10.644;2022-09-09T09:08:26;6.78;;;4.22;;
30068;SDS011;16894;49.456;10.644;2022-09-09T09:11:03;4.05;;;3.67;;
30068;SDS011;16894;49.456;10.644;2022-09-09T09:13:42;5.90;;;4.53;;
30068;SDS011;16894;49.456;10.644;2022-09-09T09:16:34;4.30;;;4.00;;
30068;SDS011;16894;49.456;10.644;2022-09-09T09:19:12;5.18;;;4.53;;
30068;SDS011;16894;49.456;10.644;2022-09-09T09:21:41;10.25;;;5.60;;
30068;SDS011;16894;49.456;10.644;2022-09-09T09:24:20;7.57;;;5.00;;
30068;SDS011;16894;49.456;10.644;2022-09-09T09:26:49;7.63;;;5.15;;
30068;SDS011;16894;49.456;10.644;2022-09-09T09:29:16;7.68;;;5.47;;
30068;SDS011;16894;49.456;10.644;2022-09-09T09:31:53;6.35;;;4.47;;
30068;SDS011;16894;49.456;10.644;2022-09-09T09:34:22;6.68;;;4.15;;
30068;SDS011;16894;49.456;10.644;2022-09-09T09:36:59;6.97;;;4.25;;
30068;SDS011;16894;49.456;10.644;2022-09-09T09:39:30;8.35;;;3.88;;
30068;SDS011;16894;49.456;10.644;2022-09-09T09:42:22;4.63;;;3.85;;
30068;SDS011;16894;49.456;10.644;2022-09-09T09:44:47;8.35;;;4.35;;
30068;SDS011;16894;49.456;10.644;2022-09-09T09:47:17;5.90;;;4.10;;
30068;SDS011;16894;49.456;10.644;2022-09-09T09:49:57;6.65;;;4.35;;
30068;SDS011;16894;49.456;10.644;2022-09-09T09:52:30;5.70;;;5.20;;
30068;SDS011;16894;49.456;10.644;2022-09-09T09:54:57;7.45;;;6.75;;
30068;SDS011;16894;49.456;10.644;2022-09-09T09:57:28;10.18;;;7.30;;
30068;SDS011;16894;49.456;10.644;2022-09-09T10:00:08;9.70;;;5.70;;
30068;SDS011;16894;49.456;10.644;2022-09-09T10:02:40;9.02;;;3.63;;
30068;SDS011;16894;49.456;10.644;2022-09-09T10:07:42;5.38;;;3.83;;
30068;SDS011;16894;49.456;10.644;2022-09-09T10:10:56;8.18;;;4.18;;
30068;SDS011;16894;49.456;10.644;2022-09-09T10:13:20;7.85;;;4.15;;
30068;SDS011;16894;49.456;10.644;2022-09-09T10:19:13;12.45;;;3.50;;
30068;SDS011;16894;49.456;10.644;2022-09-09T10:27:23;6.18;;;3.13;;
30068;SDS011;16894;49.456;10.644;2022-09-09T10:35:01;6.88;;;2.65;;
30068;SDS011;16894;49.456;10.644;2022-09-09T10:38:14;3.92;;;2.17;;
30068;SDS011;16894;49.456;10.644;2022-09-09T10:51:22;4.30;;;2.15;;
30068;SDS011;16894;49.456;10.644;2022-09-09T10:56:35;4.53;;;2.60;;
30068;SDS011;16894;49.456;10.644;2022-09-09T10:59:15;4.47;;;3.40;;
30068;SDS011;16894;49.456;10.644;2022-09-09T11:01:48;4.35;;;3.95;;
30068;SDS011;16894;49.456;10.644;2022-09-09T11:04:22;6.70;;;3.13;;
30068;SDS011;16894;49.456;10.644;2022-09-09T11:06:55;4.60;;;2.58;;
30068;SDS011;16894;49.456;10.644;2022-09-09T11:09:25;7.07;;;3.10;;
30068;SDS011;16894;49.456;10.644;2022-09-09T11:11:56;7.93;;;3.83;;
30068;SDS011;16894;49.456;10.644;2022-09-09T11:17:45;6.10;;;5.55;;
30068;SDS011;16894;49.456;10.644;2022-09-09T11:20:13;6.82;;;3.30;;
30068;SDS011;16894;49.456;10.644;2022-09-09T11:22:51;5.22;;;3.42;;
30068;SDS011;16894;49.456;10.644;2022-09-09T11:25:43;6.07;;;2.80;;
30068;SDS011;16894;49.456;10.644;2022-09-09T11:36:27;9.80;;;6.25;;
30068;SDS011;16894;49.456;10.644;2022-09-09T11:39:09;11.57;;;10.43;;
30068;SDS011;16894;49.456;10.644;2022-09-09T11:42:05;11.20;;;9.68;;
30068;SDS011;16894;49.456;10.644;2022-09-09T11:44:40;21.15;;;19.38;;
30068;SDS011;16894;49.456;10.644;2022-09-09T11:50:06;23.90;;;22.33;;
30068;SDS011;16894;49.456;10.644;2022-09-09T11:52:40;26.30;;;24.67;;
30068;SDS011;16894;49.456;10.644;2022-09-09T11:55:30;29.08;;;27.23;;
30068;SDS011;16894;49.456;10.644;2022-09-09T11:58:03;29.00;;;27.10;;
30068;SDS011;16894;49.456;10.644;2022-09-09T12:00:40;27.10;;;25.42;;
30068;SDS011;16894;49.456;10.644;2022-09-09T12:06:29;19.92;;;18.48;;
30068;SDS011;16894;49.456;10.644;2022-09-09T12:08:58;14.60;;;13.43;;
30068;SDS011;16894;49.456;10.644;2022-09-09T12:11:49;10.88;;;8.25;;
30068;SDS011;16894;49.456;10.644;2022-09-09T12:14:23;10.30;;;7.18;;
30068;SDS011;16894;49.456;10.644;2022-09-09T12:19:39;26.42;;;16.75;;
30068;SDS011;16894;49.456;10.644;2022-09-09T12:22:07;12.90;;;6.67;;
30068;SDS011;16894;49.456;10.644;2022-09-09T12:24:37;17.00;;;7.00;;
30068;SDS011;16894;49.456;10.644;2022-09-09T12:27:23;12.50;;;3.20;;
30068;SDS011;16894;49.456;10.644;2022-09-09T12:32:23;8.82;;;7.32;;
30068;SDS011;16894;49.456;10.644;2022-09-09T12:34:54;11.50;;;10.48;;
30068;SDS011;16894;49.456;10.644;2022-09-09T12:37:37;8.82;;;4.97;;
30068;SDS011;16894;49.456;10.644;2022-09-09T12:40:18;11.95;;;5.03;;
30068;SDS011;16894;49.456;10.644;2022-09-09T12:42:51;14.35;;;7.22;;
30068;SDS011;16894;49.456;10.644;2022-09-09T12:45:18;13.15;;;7.22;;
30068;SDS011;16894;49.456;10.644;2022-09-09T12:47:51;8.60;;;4.13;;
30068;SDS011;16894;49.456;10.644;2022-09-09T12:50:21;9.43;;;2.80;;
30068;SDS011;16894;49.456;10.644;2022-09-09T12:52:57;63.72;;;59.78;;
30068;SDS011;16894;49.456;10.644;2022-09-09T12:55:29;55.50;;;51.63;;
30068;SDS011;16894;49.456;10.644;2022-09-09T12:57:58;50.38;;;46.92;;
30068;SDS011;16894;49.456;10.644;2022-09-09T13:00:26;55.90;;;52.10;;
30068;SDS011;16894;49.456;10.644;2022-09-09T13:02:56;40.95;;;37.55;;
30068;SDS011;16894;49.456;10.644;2022-09-09T13:05:28;17.95;;;16.30;;
30068;SDS011;16894;49.456;10.644;2022-09-09T13:08:00;7.90;;;3.57;;
30068;SDS011;16894;49.456;10.644;2022-09-09T13:10:31;5.70;;;3.08;;
30068;SDS011;16894;49.456;10.644;2022-09-09T13:13:00;6.35;;;3.00;;
30068;SDS011;16894;49.456;10.644;2022-09-09T13:15:27;5.53;;;2.65;;
30068;SDS011;16894;49.456;10.644;2022-09-09T13:17:57;4.78;;;2.78;;
30068;SDS011;16894;49.456;10.644;2022-09-09T13:20:26;14.63;;;2.65;;
30068;SDS011;16894;49.456;10.644;2022-09-09T13:22:56;11.45;;;2.03;;
30068;SDS011;16894;49.456;10.644;2022-09-09T13:25:28;6.63;;;2.45;;
30068;SDS011;16894;49.456;10.644;2022-09-09T13:28:01;9.13;;;5.80;;
30068;SDS011;16894;49.456;10.644;2022-09-09T13:30:33;6.80;;;2.90;;
30068;SDS011;16894;49.456;10.644;2022-09-09T13:35:35;8.20;;;3.97;;
30068;SDS011;16894;49.456;10.644;2022-09-09T13:38:19;17.48;;;5.65;;
30068;SDS011;16894;49.456;10.644;2022-09-09T13:40:57;6.10;;;5.70;;
30068;SDS011;16894;49.456;10.644;2022-09-09T13:43:43;8.88;;;5.47;;
30068;SDS011;16894;49.456;10.644;2022-09-09T13:51:41;7.78;;;7.13;;
30068;SDS011;16894;49.456;10.644;2022-09-09T13:54:10;2.85;;;2.10;;
30068;SDS011;16894;49.456;10.644;2022-09-09T13:56:37;9.57;;;3.28;;
30068;SDS011;16894;49.456;10.644;2022-09-09T13:59:06;13.65;;;11.02;;
30068;SDS011;16894;49.456;10.644;2022-09-09T14:01:36;24.35;;;22.65;;
30068;SDS011;16894;49.456;10.644;2022-09-09T14:06:28;5.65;;;5.18;;
30068;SDS011;16894;49.456;10.644;2022-09-09T14:08:54;5.22;;;4.72;;
30068;SDS011;16894;49.456;10.644;2022-09-09T14:11:20;4.50;;;4.07;;
30068;SDS011;16894;49.456;10.644;2022-09-09T14:13:47;5.90;;;4.80;;
30068;SDS011;16894;49.456;10.644;2022-09-09T14:16:15;5.82;;;4.57;;
30068;SDS011;16894;49.456;10.644;2022-09-09T14:18:44;9.82;;;5.60;;
30068;SDS011;16894;49.456;10.644;2022-09-09T14:21:10;9.18;;;5.03;;
30068;SDS011;16894;49.456;10.644;2022-09-09T14:26:03;9.03;;;8.33;;
30068;SDS011;16894;49.456;10.644;2022-09-09T14:28:32;8.55;;;7.53;;
30068;SDS011;16894;49.456;10.644;2022-09-09T14:31:02;7.50;;;5.78;;
30068;SDS011;16894;49.456;10.644;2022-09-09T14:33:28;8.02;;;3.97;;
30068;SDS011;16894;49.456;10.644;2022-09-09T14:35:58;5.13;;;3.50;;
30068;SDS011;16894;49.456;10.644;2022-09-09T14:38:25;4.45;;;4.05;;
30068;SDS011;16894;49.456;10.644;2022-09-09T14:40:54;5.63;;;3.28;;
30068;SDS011;16894;49.456;10.644;2022-09-09T14:43:19;3.92;;;2.83;;
30068;SDS011;16894;49.456;10.644;2022-09-09T14:45:45;4.45;;;2.92;;
30068;SDS011;16894;49.456;10.644;2022-09-09T14:48:13;5.43;;;3.88;;
30068;SDS011;16894;49.456;10.644;2022-09-09T14:50:40;4.80;;;3.38;;
30068;SDS011;16894;49.456;10.644;2022-09-09T14:53:06;4.00;;;3.60;;
30068;SDS011;16894;49.456;10.644;2022-09-09T14:55:32;4.18;;;3.88;;
30068;SDS011;16894;49.456;10.644;2022-09-09T14:57:58;6.10;;;4.10;;
30068;SDS011;16894;49.456;10.644;2022-09-09T15:00:23;5.17;;;4.67;;
30068;SDS011;16894;49.456;10.644;2022-09-09T15:02:52;5.53;;;5.07;;
30068;SDS011;16894;49.456;10.644;2022-09-09T15:05:18;7.85;;;5.30;;
30068;SDS011;16894;49.456;10.644;2022-09-09T15:07:44;8.18;;;6.05;;
30068;SDS011;16894;49.456;10.644;2022-09-09T15:10:10;6.60;;;5.70;;
30068;SDS011;16894;49.456;10.644;2022-09-09T15:12:36;5.70;;;4.88;;
30068;SDS011;16894;49.456;10.644;2022-09-09T15:15:03;4.95;;;4.15;;
30068;SDS011;16894;49.456;10.644;2022-09-09T15:17:29;7.22;;;6.38;;
30068;SDS011;16894;49.456;10.644;2022-09-09T15:19:55;4.70;;;4.30;;
30068;SDS011;16894;49.456;10.644;2022-09-09T15:22:21;6.88;;;3.95;;
30068;SDS011;16894;49.456;10.644;2022-09-09T15:24:47;4.90;;;2.97;;
30068;SDS011;16894;49.456;10.644;2022-09-09T15:27:13;3.72;;;2.65;;
30068;SDS011;16894;49.456;10.644;2022-09-09T15:32:06;7.22;;;6.00;;
30068;SDS011;16894;49.456;10.644;2022-09-09T15:34:32;9.63;;;7.13;;
30068;SDS011;16894;49.456;10.644;2022-09-09T15:36:58;5.72;;;4.88;;
30068;SDS011;16894;49.456;10.644;2022-09-09T15:39:25;13.50;;;7.50;;
30068;SDS011;16894;49.456;10.644;2022-09-09T15:41:51;6.78;;;4.72;;
30068;SDS011;16894;49.456;10.644;2022-09-09T15:44:16;8.32;;;4.85;;
30068;SDS011;16894;49.456;10.644;2022-09-09T15:46:50;4.18;;;3.78;;
30068;SDS011;16894;49.456;10.644;2022-09-09T15:49:22;14.73;;;8.25;;
30068;SDS011;16894;49.456;10.644;2022-09-09T15:51:54;6.57;;;4.07;;
30068;SDS011;16894;49.456;10.644;2022-09-09T15:54:23;3.50;;;3.20;;
30068;SDS011;16894;49.456;10.644;2022-09-09T15:56:54;4.32;;;3.40;;
30068;SDS011;16894;49.456;10.644;2022-09-09T15:59:22;6.10;;;3.00;;
30068;SDS011;16894;49.456;10.644;2022-09-09T16:01:48;3.22;;;2.80;;
30068;SDS011;16894;49.456;10.644;2022-09-09T16:04:16;8.63;;;3.05;;
30068;SDS011;16894;49.456;10.644;2022-09-09T16:06:48;8.20;;;4.03;;
30068;SDS011;16894;49.456;10.644;2022-09-09T16:09:15;4.43;;;3.92;;
30068;SDS011;16894;49.456;10.644;2022-09-09T16:11:44;4.43;;;3.70;;
30068;SDS011;16894;49.456;10.644;2022-09-09T16:14:11;4.35;;;3.60;;
30068;SDS011;16894;49.456;10.644;2022-09-09T16:16:38;7.25;;;4.20;;
30068;SDS011;16894;49.456;10.644;2022-09-09T16:19:05;6.27;;;5.53;;
30068;SDS011;16894;49.456;10.644;2022-09-09T16:21:36;4.88;;;4.35;;
30068;SDS011;16894;49.456;10.644;2022-09-09T16:24:07;5.88;;;5.45;;
30068;SDS011;16894;49.456;10.644;2022-09-09T16:26:35;7.60;;;6.00;;
30068;SDS011;16894;49.456;10.644;2022-09-09T16:29:02;6.43;;;5.97;;
30068;SDS011;16894;49.456;10.644;2022-09-09T16:31:29;12.10;;;10.55;;
30068;SDS011;16894;49.456;10.644;2022-09-09T16:33:57;16.35;;;12.77;;
30068;SDS011;16894;49.456;10.644;2022-09-09T16:36:24;7.45;;;6.55;;
30068;SDS011;16894;49.456;10.644;2022-09-09T16:38:57;8.32;;;7.53;;
30068;SDS011;16894;49.456;10.644;2022-09-09T16:41:25;8.80;;;8.27;;
30068;SDS011;16894;49.456;10.644;2022-09-09T16:43:54;8.02;;;7.22;;
30068;SDS011;16894;49.456;10.644;2022-09-09T16:48:46;15.73;;;8.68;;
30068;SDS011;16894;49.456;10.644;2022-09-09T16:51:15;9.80;;;6.88;;
30068;SDS011;16894;49.456;10.644;2022-09-09T16:53:42;7.40;;;6.82;;
30068;SDS011;16894;49.456;10.644;2022-09-09T16:58:35;11.98;;;7.80;;
30068;SDS011;16894;49.456;10.644;2022-09-09T17:01:02;7.40;;;6.80;;
30068;SDS011;16894;49.456;10.644;2022-09-09T17:03:28;11.35;;;10.38;;
30068;SDS011;16894;49.456;10.644;2022-09-09T17:05:54;12.20;;;6.90;;
30068;SDS011;16894;49.456;10.644;2022-09-09T17:08:22;7.85;;;6.20;;
30068;SDS011;16894;49.456;10.644;2022-09-09T17:10:51;6.90;;;6.40;;
30068;SDS011;16894;49.456;10.644;2022-09-09T17:13:17;7.27;;;6.63;;
30068;SDS011;16894;49.456;10.644;2022-09-09T17:15:44;6.35;;;5.95;;
30068;SDS011;16894;49.456;10.644;2022-09-09T17:18:11;5.65;;;4.32;;